createdAt,value
2022-10-02T00:01:51.072Z,11.39
2022-10-02T00:04:33.828Z,11.77
2022-10-02T00:07:03.847Z,11.52
2022-10-02T00:09:33.858Z,11.27
2022-10-02T00:12:00.982Z,11.16
2022-10-02T00:14:31.703Z,11.18
2022-10-02T00:17:00.353Z,11.34
2022-10-02T00:19:27.441Z,11.35
2022-10-02T00:21:59.989Z,11.25
2022-10-02T00:24:28.913Z,11.21
2022-10-02T00:26:59.254Z,11.01
2022-10-02T00:29:33.097Z,11.11
2022-10-02T00:32:18.238Z,11.14
2022-10-02T00:34:44.650Z,11.03
2022-10-02T00:37:11.054Z,11.05
2022-10-02T00:39:44.969Z,10.84
2022-10-02T00:42:25.754Z,10.67
2022-10-02T00:44:58.660Z,11.00
2022-10-02T00:47:41.986Z,11.15
2022-10-02T00:50:18.111Z,11.10
2022-10-02T00:52:44.545Z,11.18
2022-10-02T00:55:27.418Z,10.93
2022-10-02T00:58:02.965Z,11.00
2022-10-02T01:00:29.505Z,11.06
2022-10-02T01:03:10.274Z,11.16
2022-10-02T01:05:37.780Z,11.14
2022-10-02T01:08:04.667Z,11.17
2022-10-02T01:10:31.518Z,11.23
2022-10-02T01:12:58.671Z,11.13
2022-10-02T01:15:48.342Z,10.87
2022-10-02T01:18:14.957Z,10.84
2022-10-02T01:20:46.609Z,10.74
2022-10-02T01:23:32.240Z,10.90
2022-10-02T01:25:58.882Z,10.99
2022-10-02T01:28:26.162Z,11.03
2022-10-02T01:30:55.427Z,10.95
2022-10-02T01:33:23.072Z,11.03
2022-10-02T01:35:49.908Z,10.87
2022-10-02T01:38:18.623Z,10.50
2022-10-02T01:40:45.259Z,10.65
2022-10-02T01:43:17.003Z,10.36
2022-10-02T01:45:59.003Z,10.54
2022-10-02T01:48:43.792Z,10.48
2022-10-02T01:51:10.213Z,10.53
2022-10-02T01:53:45.321Z,10.57
2022-10-02T01:56:23.989Z,10.62
2022-10-02T01:59:05.200Z,10.21
2022-10-02T02:01:40.663Z,10.18
2022-10-02T02:04:24.498Z,10.30
2022-10-02T02:07:10.278Z,10.33
2022-10-02T02:09:36.653Z,9.95
2022-10-02T02:12:09.286Z,9.73
2022-10-02T02:14:37.813Z,10.09
2022-10-02T02:17:36.689Z,10.16
2022-10-02T02:20:07.229Z,10.27
2022-10-02T02:22:39.006Z,10.38
2022-10-02T02:25:05.593Z,10.34
2022-10-02T02:27:35.726Z,10.41
2022-10-02T02:30:05.998Z,10.34
2022-10-02T02:32:35.593Z,10.27
2022-10-02T02:35:05.507Z,10.25
2022-10-02T02:37:33.998Z,10.21
2022-10-02T02:40:06.390Z,10.16
2022-10-02T02:42:37.339Z,9.95
2022-10-02T02:45:12.563Z,9.83
2022-10-02T02:47:42.185Z,9.91
2022-10-02T02:50:21.687Z,10.08
2022-10-02T02:52:52.567Z,10.16
2022-10-02T02:55:20.549Z,10.30
2022-10-02T02:57:54.367Z,10.29
2022-10-02T03:00:22.794Z,10.03
2022-10-02T03:02:50.610Z,10.11
2022-10-02T03:05:18.823Z,10.26
2022-10-02T03:07:53.909Z,9.99
2022-10-02T03:10:29.358Z,10.08
2022-10-02T03:13:07.915Z,10.15
2022-10-02T03:15:53.363Z,9.98
2022-10-02T03:18:25.985Z,9.98
2022-10-02T03:20:52.377Z,9.96
2022-10-02T03:23:29.779Z,10.02
2022-10-02T03:26:16.425Z,10.31
2022-10-02T03:28:56.006Z,10.16
2022-10-02T03:31:24.908Z,10.20
2022-10-02T03:33:53.655Z,10.26
2022-10-02T03:36:21.758Z,10.42
2022-10-02T03:39:00.695Z,10.42
2022-10-02T03:41:34.886Z,10.55
2022-10-02T03:44:01.491Z,10.47
2022-10-02T03:46:27.956Z,11.03
2022-10-02T03:48:56.519Z,10.80
2022-10-02T03:51:23.818Z,10.66
2022-10-02T03:53:50.404Z,10.33
2022-10-02T03:56:22.533Z,10.34
2022-10-02T03:58:51.643Z,10.31
2022-10-02T04:01:26.573Z,10.50
2022-10-02T04:03:56.271Z,10.25
2022-10-02T04:06:27.980Z,10.21
2022-10-02T04:08:58.077Z,10.57
2022-10-02T04:11:27.481Z,10.37
2022-10-02T04:13:59.246Z,10.15
2022-10-02T04:16:32.048Z,10.14
2022-10-02T04:18:59.770Z,9.95
2022-10-02T04:21:34.272Z,9.62
2022-10-02T04:24:09.649Z,9.57
2022-10-02T04:26:39.893Z,9.72
2022-10-02T04:29:11.610Z,9.94
2022-10-02T04:31:38.070Z,9.99
2022-10-02T04:34:07.519Z,9.91
2022-10-02T04:36:46.815Z,9.95
2022-10-02T04:39:16.003Z,9.77
2022-10-02T04:41:48.566Z,9.59
2022-10-02T04:44:35.293Z,9.76
2022-10-02T04:47:14.654Z,9.65
2022-10-02T04:49:41.150Z,9.59
2022-10-02T04:52:19.661Z,9.68
2022-10-02T04:55:04.274Z,9.63
2022-10-02T04:57:47.769Z,9.23
2022-10-02T05:00:22.178Z,9.19
2022-10-02T05:02:48.666Z,9.54
2022-10-02T05:05:21.208Z,9.68
2022-10-02T05:07:50.695Z,9.66
2022-10-02T05:10:35.474Z,9.63
2022-10-02T05:13:07.850Z,9.68
2022-10-02T05:15:37.435Z,9.55
2022-10-02T05:18:12.513Z,9.40
2022-10-02T05:20:56.438Z,9.63
2022-10-02T05:23:29.179Z,9.50
2022-10-02T05:26:18.046Z,9.71
2022-10-02T05:28:53.433Z,9.68
2022-10-02T05:31:30.252Z,9.86
2022-10-02T05:34:05.962Z,9.59
2022-10-02T05:36:35.640Z,9.80
2022-10-02T05:39:04.870Z,9.77
2022-10-02T05:41:34.034Z,9.88
2022-10-02T05:44:04.340Z,9.86
2022-10-02T05:46:34.246Z,9.97
2022-10-02T05:49:06.337Z,10.00
2022-10-02T05:51:47.327Z,10.04
2022-10-02T05:54:19.872Z,10.08
2022-10-02T05:57:02.329Z,9.94
2022-10-02T05:59:33.898Z,9.95
2022-10-02T06:02:03.488Z,10.18
2022-10-02T06:04:39.637Z,10.63
2022-10-02T06:07:10.436Z,10.97
2022-10-02T06:09:40.990Z,11.20
2022-10-02T06:12:11.159Z,11.25
2022-10-02T06:14:49.857Z,11.38
2022-10-02T06:17:31.626Z,11.71
2022-10-02T06:20:03.009Z,12.64
2022-10-02T06:22:42.008Z,13.20
2022-10-02T06:25:08.636Z,13.07
2022-10-02T06:27:43.128Z,12.92
2022-10-02T06:30:12.431Z,12.94
2022-10-02T06:32:41.998Z,12.93
2022-10-02T06:35:12.575Z,12.84
2022-10-02T06:37:51.703Z,12.81
2022-10-02T06:40:42.832Z,12.74
2022-10-02T06:43:36.584Z,12.74
2022-10-02T06:46:22.857Z,13.15
2022-10-02T06:48:55.236Z,13.47
2022-10-02T06:51:40.712Z,13.58
2022-10-02T06:54:17.058Z,13.74
2022-10-02T06:57:02.459Z,14.54
2022-10-02T06:59:50.666Z,15.49
2022-10-02T07:02:28.600Z,15.94
2022-10-02T07:05:13.954Z,16.06
2022-10-02T07:07:52.513Z,16.66
2022-10-02T07:10:39.308Z,16.76
2022-10-02T07:13:24.435Z,17.91
2022-10-02T07:16:08.496Z,18.40
2022-10-02T07:18:37.745Z,17.23
2022-10-02T07:21:07.709Z,16.57
2022-10-02T07:23:34.980Z,16.97
2022-10-02T07:26:01.876Z,17.01
2022-10-02T07:28:45.360Z,16.77
2022-10-02T07:31:30.546Z,17.36
2022-10-02T07:34:15.592Z,17.55
2022-10-02T07:36:48.201Z,16.81
2022-10-02T07:39:31.326Z,17.38
2022-10-02T07:42:00.770Z,17.41
2022-10-02T07:44:27.578Z,18.06
2022-10-02T07:47:13.942Z,18.26
2022-10-02T07:49:49.637Z,19.10
2022-10-02T07:52:19.053Z,19.41
2022-10-02T07:55:04.289Z,19.62
2022-10-02T07:57:49.573Z,20.05
2022-10-02T08:00:17.558Z,19.54
2022-10-02T08:02:44.149Z,19.99
2022-10-02T08:05:21.887Z,19.89
2022-10-02T08:07:50.787Z,20.32
2022-10-02T08:10:24.867Z,20.74
2022-10-02T08:12:57.822Z,20.53
2022-10-02T08:15:25.210Z,21.58
2022-10-02T08:17:54.092Z,21.55
2022-10-02T08:20:20.505Z,21.79
2022-10-02T08:22:50.905Z,20.98
2022-10-02T08:25:20.966Z,20.17
2022-10-02T08:27:56.666Z,20.65
2022-10-02T08:30:23.181Z,21.93
2022-10-02T08:32:49.671Z,22.52
2022-10-02T08:35:17.138Z,21.04
2022-10-02T08:37:43.534Z,20.42
2022-10-02T08:40:29.403Z,21.77
2022-10-02T08:43:17.166Z,22.02
2022-10-02T08:45:43.596Z,20.98
2022-10-02T08:48:14.934Z,21.65
2022-10-02T08:51:00.015Z,21.07
2022-10-02T08:53:32.450Z,21.02
2022-10-02T08:56:20.171Z,21.25
2022-10-02T08:58:46.867Z,20.02
2022-10-02T09:01:39.202Z,20.30
2022-10-02T09:04:24.023Z,21.14
2022-10-02T09:07:09.496Z,21.82
2022-10-02T09:09:50.858Z,20.29
2022-10-02T09:12:17.269Z,19.55
2022-10-02T09:14:58.077Z,19.60
2022-10-02T09:17:45.745Z,19.74
2022-10-02T09:20:28.405Z,19.33
2022-10-02T09:22:58.881Z,18.95
2022-10-02T09:25:34.853Z,19.66
2022-10-02T09:28:07.408Z,19.71
2022-10-02T09:30:47.882Z,19.57
2022-10-02T09:33:29.586Z,19.40
2022-10-02T09:36:24.726Z,19.19
2022-10-02T09:39:15.347Z,19.29
2022-10-02T09:42:08.750Z,19.50
2022-10-02T09:44:48.848Z,19.22
2022-10-02T09:47:36.954Z,19.22
2022-10-02T09:50:22.356Z,19.29
2022-10-02T09:52:52.594Z,19.19
2022-10-02T09:55:37.969Z,19.44
2022-10-02T09:58:18.510Z,19.44
2022-10-02T10:01:02.049Z,19.29
2022-10-02T10:03:47.069Z,19.43
2022-10-02T10:06:22.714Z,19.49
2022-10-02T10:09:01.378Z,19.43
2022-10-02T10:11:29.315Z,19.39
2022-10-02T10:14:10.990Z,19.02
2022-10-02T10:16:38.240Z,18.88
2022-10-02T10:19:04.800Z,18.67
2022-10-02T10:21:50.113Z,18.31
2022-10-02T10:24:35.354Z,17.72
2022-10-02T10:27:20.781Z,17.40
2022-10-02T10:30:06.075Z,17.33
2022-10-02T10:32:56.977Z,17.23
2022-10-02T10:35:33.813Z,17.15
2022-10-02T10:38:22.042Z,16.94
2022-10-02T10:41:09.361Z,16.67
2022-10-02T10:43:51.346Z,16.67
2022-10-02T10:46:31.173Z,16.96
2022-10-02T10:49:16.380Z,16.52
2022-10-02T10:51:59.378Z,16.36
2022-10-02T10:54:55.126Z,16.23
2022-10-02T10:57:33.159Z,16.12
2022-10-02T11:00:20.034Z,16.20
2022-10-02T11:02:54.790Z,16.58
2022-10-02T11:05:22.268Z,16.65
2022-10-02T11:07:48.689Z,16.77
2022-10-02T11:10:21.437Z,16.81
2022-10-02T11:12:54.018Z,16.84
2022-10-02T11:15:20.568Z,16.84
2022-10-02T11:17:49.825Z,17.02
2022-10-02T11:20:35.025Z,17.25
2022-10-02T11:23:10.750Z,17.39
2022-10-02T11:25:43.406Z,17.38
2022-10-02T11:28:12.866Z,17.40
2022-10-02T11:30:41.841Z,17.73
2022-10-02T11:33:18.466Z,17.79
2022-10-02T11:36:04.230Z,17.87
2022-10-02T11:38:50.070Z,17.89
2022-10-02T11:41:32.070Z,17.77
2022-10-02T11:44:00.367Z,17.95
2022-10-02T11:46:40.937Z,18.01
2022-10-02T11:49:07.861Z,18.61
2022-10-02T11:51:46.334Z,18.23
2022-10-02T11:54:38.946Z,18.84
2022-10-02T11:57:17.517Z,18.58
2022-10-02T11:59:50.378Z,18.70
2022-10-02T12:02:16.975Z,18.91
2022-10-02T12:04:52.674Z,18.20
2022-10-02T12:07:25.314Z,18.38
2022-10-02T12:09:54.845Z,18.66
2022-10-02T12:12:27.694Z,18.88
2022-10-02T12:15:02.187Z,19.06
2022-10-02T12:17:44.219Z,19.00
2022-10-02T12:20:48.047Z,18.99
2022-10-02T12:23:39.294Z,18.69
2022-10-02T12:26:41.342Z,18.29
2022-10-02T12:29:30.930Z,18.79
2022-10-02T12:32:00.382Z,18.74
2022-10-02T12:34:40.353Z,18.38
2022-10-02T12:37:22.884Z,18.72
2022-10-02T12:40:04.541Z,19.40
2022-10-02T12:42:41.182Z,19.37
2022-10-02T12:45:11.551Z,19.21
2022-10-02T12:47:41.455Z,19.10
2022-10-02T12:50:13.846Z,18.90
2022-10-02T12:52:59.350Z,19.03
2022-10-02T12:55:43.762Z,19.10
2022-10-02T12:58:25.561Z,18.63
2022-10-02T13:00:58.149Z,18.55
2022-10-02T13:03:43.503Z,19.28
2022-10-02T13:06:26.870Z,18.89
2022-10-02T13:08:56.079Z,19.03
2022-10-02T13:11:25.656Z,19.33
2022-10-02T13:14:02.174Z,19.00
2022-10-02T13:16:31.616Z,18.88
2022-10-02T13:19:17.209Z,18.41
2022-10-02T13:22:00.999Z,18.79
2022-10-02T13:24:33.551Z,18.68
2022-10-02T13:27:18.712Z,19.10
2022-10-02T13:29:45.171Z,19.45
2022-10-02T13:32:14.890Z,19.33
2022-10-02T13:34:59.994Z,19.12
2022-10-02T13:37:41.859Z,18.83
2022-10-02T13:40:18.477Z,18.87
2022-10-02T13:42:44.999Z,19.13
2022-10-02T13:45:11.467Z,19.18
2022-10-02T13:47:40.298Z,19.33
2022-10-02T13:50:06.696Z,19.55
2022-10-02T13:52:53.828Z,19.72
2022-10-02T13:55:20.491Z,19.34
2022-10-02T13:57:53.074Z,20.16
2022-10-02T14:00:37.906Z,20.44
2022-10-02T14:03:07.523Z,20.15
2022-10-02T14:06:09.398Z,19.83
2022-10-02T14:08:54.163Z,20.01
2022-10-02T14:11:29.035Z,20.86
2022-10-02T14:14:05.153Z,21.77
2022-10-02T14:16:31.639Z,22.24
2022-10-02T14:19:04.047Z,21.46
2022-10-02T14:21:33.672Z,22.19
2022-10-02T14:24:00.099Z,22.08
2022-10-02T14:26:32.371Z,21.13
2022-10-02T14:29:25.273Z,21.06
2022-10-02T14:32:08.462Z,21.75
2022-10-02T14:34:44.357Z,20.66
2022-10-02T14:37:29.886Z,21.36
2022-10-02T14:39:57.707Z,20.64
2022-10-02T14:42:30.264Z,19.98
2022-10-02T14:45:21.590Z,20.26
2022-10-02T14:48:10.048Z,20.93
2022-10-02T14:50:36.484Z,20.97
2022-10-02T14:53:26.191Z,21.34
2022-10-02T14:56:13.248Z,20.69
2022-10-02T14:58:45.929Z,21.02
2022-10-02T15:01:26.999Z,20.60
2022-10-02T15:04:05.824Z,20.10
2022-10-02T15:06:40.870Z,19.84
2022-10-02T15:09:13.937Z,19.70
2022-10-02T15:11:59.396Z,19.02
2022-10-02T15:14:32.014Z,18.73
2022-10-02T15:17:18.734Z,18.86
2022-10-02T15:19:50.005Z,18.93
2022-10-02T15:22:19.732Z,19.04
2022-10-02T15:24:48.469Z,18.40
2022-10-02T15:27:14.886Z,17.71
2022-10-02T15:29:41.966Z,17.67
2022-10-02T15:32:28.245Z,18.02
2022-10-02T15:35:23.940Z,17.76
2022-10-02T15:38:10.094Z,17.37
2022-10-02T15:40:42.716Z,17.28
2022-10-02T15:43:12.137Z,17.33
2022-10-02T15:45:41.636Z,17.51
2022-10-02T15:48:10.081Z,17.26
2022-10-02T15:50:53.194Z,17.28
2022-10-02T15:53:39.010Z,17.19
2022-10-02T15:56:05.411Z,16.83
2022-10-02T15:58:31.805Z,16.94
2022-10-02T16:01:04.311Z,16.76
2022-10-02T16:03:53.389Z,16.62
2022-10-02T16:06:28.096Z,16.62
2022-10-02T16:09:13.135Z,16.60
2022-10-02T16:11:45.682Z,16.31
2022-10-02T16:14:12.111Z,16.23
2022-10-02T16:16:42.148Z,16.31
2022-10-02T16:19:28.390Z,16.24
2022-10-02T16:22:17.792Z,16.21
2022-10-02T16:24:58.251Z,15.91
2022-10-02T16:27:46.674Z,15.89
2022-10-02T16:30:15.332Z,15.57
2022-10-02T16:32:53.709Z,15.67
2022-10-02T16:35:42.788Z,15.52
2022-10-02T16:38:28.867Z,15.72
2022-10-02T16:40:57.233Z,15.89
2022-10-02T16:43:39.766Z,15.81
2022-10-02T16:46:18.686Z,15.53
2022-10-02T16:48:51.838Z,15.49
2022-10-02T16:51:37.004Z,15.30
2022-10-02T16:54:15.361Z,15.43
2022-10-02T16:56:53.910Z,15.27
2022-10-02T16:59:25.107Z,15.42
2022-10-02T17:02:18.119Z,15.48
2022-10-02T17:04:49.050Z,15.08
2022-10-02T17:07:15.452Z,14.88
2022-10-02T17:09:50.644Z,14.83
2022-10-02T17:12:44.200Z,14.88
2022-10-02T17:15:34.271Z,14.94
2022-10-02T17:18:00.682Z,14.92
2022-10-02T17:20:29.503Z,14.86
2022-10-02T17:23:16.643Z,14.56
2022-10-02T17:25:51.929Z,14.49
2022-10-02T17:28:19.365Z,14.65
2022-10-02T17:30:54.887Z,14.53
2022-10-02T17:33:22.209Z,14.64
2022-10-02T17:35:56.184Z,14.55
2022-10-02T17:38:25.611Z,14.63
2022-10-02T17:41:10.927Z,14.62
2022-10-02T17:43:59.508Z,14.68
2022-10-02T17:46:58.173Z,14.55
2022-10-02T17:49:27.680Z,14.55
2022-10-02T17:52:32.992Z,14.59
2022-10-02T17:55:17.949Z,14.63
2022-10-02T17:57:47.145Z,14.67
2022-10-02T18:00:16.518Z,14.69
2022-10-02T18:02:58.833Z,14.75
2022-10-02T18:05:41.874Z,14.78
2022-10-02T18:08:30.474Z,14.79
2022-10-02T18:11:05.813Z,14.85
2022-10-02T18:13:50.753Z,14.87
2022-10-02T18:16:36.055Z,14.71
2022-10-02T18:19:21.033Z,14.65
2022-10-02T18:21:50.475Z,14.65
2022-10-02T18:24:35.750Z,14.69
2022-10-02T18:27:13.319Z,14.71
2022-10-02T18:29:58.401Z,14.62
2022-10-02T18:32:26.444Z,14.68
2022-10-02T18:35:11.218Z,14.69
2022-10-02T18:37:54.537Z,14.65
2022-10-02T18:40:30.260Z,14.57
2022-10-02T18:43:21.062Z,14.50
2022-10-02T18:46:00.220Z,14.60
2022-10-02T18:48:35.586Z,14.35
2022-10-02T18:51:19.734Z,14.39
2022-10-02T18:53:58.302Z,14.46
2022-10-02T18:56:41.181Z,14.26
2022-10-02T18:59:13.696Z,14.31
2022-10-02T19:01:50.597Z,14.37
2022-10-02T19:04:20.086Z,14.40
2022-10-02T19:06:55.676Z,14.32
2022-10-02T19:09:25.846Z,14.26
2022-10-02T19:11:52.833Z,14.29
2022-10-02T19:14:30.075Z,14.32
2022-10-02T19:17:00.511Z,14.27
2022-10-02T19:19:28.003Z,14.23
2022-10-02T19:21:59.111Z,14.16
2022-10-02T19:24:28.552Z,14.28
2022-10-02T19:26:57.655Z,14.25
2022-10-02T19:29:36.800Z,14.22
2022-10-02T19:32:18.442Z,14.20
2022-10-02T19:34:47.606Z,13.91
2022-10-02T19:37:16.221Z,14.09
2022-10-02T19:39:49.553Z,14.27
2022-10-02T19:42:18.187Z,14.34
2022-10-02T19:44:46.911Z,14.34
2022-10-02T19:47:17.045Z,14.36
2022-10-02T19:49:46.628Z,14.30
2022-10-02T19:52:31.514Z,14.26
2022-10-02T19:54:59.097Z,14.30
2022-10-02T19:57:29.062Z,14.31
2022-10-02T19:59:55.559Z,14.32
2022-10-02T20:02:24.820Z,14.35
2022-10-02T20:04:53.170Z,14.46
2022-10-02T20:07:20.938Z,14.42
2022-10-02T20:09:50.672Z,14.38
2022-10-02T20:12:20.027Z,14.24
2022-10-02T20:14:52.051Z,14.24
2022-10-02T20:17:19.339Z,14.26
2022-10-02T20:19:54.005Z,14.26
2022-10-02T20:22:35.897Z,14.27
2022-10-02T20:25:06.457Z,14.23
2022-10-02T20:27:41.126Z,14.21
2022-10-02T20:30:15.346Z,14.26
2022-10-02T20:32:46.486Z,14.08
2022-10-02T20:35:18.828Z,14.01
2022-10-02T20:37:46.325Z,14.10
2022-10-02T20:40:15.402Z,14.16
2022-10-02T20:42:50.929Z,14.24
2022-10-02T20:45:18.131Z,13.93
2022-10-02T20:47:44.527Z,14.04
2022-10-02T20:50:18.013Z,14.18
2022-10-02T20:53:03.050Z,14.29
2022-10-02T20:55:53.334Z,14.08
2022-10-02T20:58:35.488Z,14.11
2022-10-02T21:01:08.138Z,14.16
2022-10-02T21:03:53.279Z,14.26
2022-10-02T21:06:38.895Z,14.11
2022-10-02T21:09:08.559Z,13.99
2022-10-02T21:11:38.011Z,13.93
2022-10-02T21:14:23.329Z,13.77
2022-10-02T21:17:15.999Z,13.82
2022-10-02T21:20:00.830Z,13.84
2022-10-02T21:22:37.244Z,13.82
2022-10-02T21:25:22.054Z,13.69
2022-10-02T21:28:07.230Z,13.55
2022-10-02T21:30:52.350Z,13.66
2022-10-02T21:33:26.880Z,13.81
2022-10-02T21:35:54.154Z,13.70
2022-10-02T21:38:41.194Z,13.81
2022-10-02T21:41:23.005Z,13.83
2022-10-02T21:44:01.778Z,13.64
2022-10-02T21:46:31.675Z,13.47
2022-10-02T21:49:04.742Z,13.72
2022-10-02T21:51:50.076Z,13.69
2022-10-02T21:54:19.870Z,13.58
2022-10-02T21:56:53.242Z,13.71
2022-10-02T21:59:19.740Z,13.68
2022-10-02T22:02:11.575Z,13.64
2022-10-02T22:04:46.861Z,13.48
2022-10-02T22:07:21.568Z,13.41
2022-10-02T22:09:57.206Z,13.50
2022-10-02T22:12:30.638Z,13.27
2022-10-02T22:15:16.026Z,13.48
2022-10-02T22:17:54.378Z,13.45
2022-10-02T22:20:20.755Z,13.30
2022-10-02T22:23:05.561Z,13.31
2022-10-02T22:25:32.148Z,13.32
2022-10-02T22:28:09.878Z,13.20
2022-10-02T22:30:59.899Z,12.95
2022-10-02T22:33:44.951Z,12.89
2022-10-02T22:36:30.274Z,12.98
2022-10-02T22:39:10.939Z,13.12
2022-10-02T22:41:40.756Z,13.00
2022-10-02T22:44:07.574Z,13.07
2022-10-02T22:46:57.517Z,13.04
2022-10-02T22:49:36.195Z,13.11
2022-10-02T22:52:21.614Z,13.00
2022-10-02T22:54:57.182Z,12.88
2022-10-02T22:57:31.104Z,13.03
2022-10-02T23:00:03.572Z,13.10
2022-10-02T23:02:42.191Z,13.03
2022-10-02T23:05:15.806Z,13.00
2022-10-02T23:07:48.226Z,13.00
2022-10-02T23:10:18.845Z,12.58
2022-10-02T23:12:53.644Z,12.78
2022-10-02T23:15:26.046Z,12.87
2022-10-02T23:17:59.369Z,12.61
2022-10-02T23:20:42.607Z,12.73
2022-10-02T23:23:35.733Z,12.76
2022-10-02T23:26:16.596Z,12.75
2022-10-02T23:28:53.108Z,12.84
2022-10-02T23:31:22.967Z,12.84
2022-10-02T23:33:55.969Z,12.74
2022-10-02T23:36:35.249Z,12.66
2022-10-02T23:39:20.074Z,12.60
2022-10-02T23:41:48.034Z,12.56
2022-10-02T23:44:20.457Z,12.55
2022-10-02T23:46:50.022Z,12.54
2022-10-02T23:49:22.246Z,12.41
2022-10-02T23:52:05.041Z,12.44
2022-10-02T23:54:34.636Z,12.42
2022-10-02T23:57:07.049Z,12.44
2022-10-02T23:59:42.749Z,12.45
